x

South Santa Rosa Is. Ca (46069) Wave Buoy

5:50am - Sat 12th Jul 2014 All times are PDT. -7 hours from GMT.

  • Sig Wave height 6.2ft
  • Peak Period 6s
  • Average Period 5s
  • Wind
    22mph, 27mph gusts
  • Sea Temp 66°f
  • Air Temp 62°f
  • Sea Pressure 1015.4mb
  • South Santa Rosa Is. Ca
  • South Santa Rosa Is. Ca

More Historic Weather Station data

Upgrade to MSW Pro to gain access to the past 30 days of data for over 8000 Wavebouys and Weather Stations around the globe.

Join Pro

Comparision Forecast

View Surf forecast
   
Sat 07/12 5:50am 6ft 6s 5s 22 27 mph 1015.4mb 66f 62f
4:50am 6ft 6s 5s 25 31 mph 1015mb 66f 62f
3:50am 6ft 6s 5s 25 29 mph 1015mb 66f 62f
2:50am 6ft 6s 5s 25 31 mph 1015.1mb 67f 62f
1:50am 6ft 6s 5s 25 31 mph 1015.1mb 67f 63f
12:50am 6ft 6s 5s 22 27 mph 1015.6mb 67f 62f
Fri 07/11 11:50pm 5ft 9s 5s 22 29 mph 1015.8mb 67f 62f
10:50pm 5.5ft 5s 5s 25 29 mph 1015.9mb 67f 63f
9:50pm 5ft 6s 5s 22 27 mph 1015.8mb 67f 63f
8:50pm 5ft 10s 5s 22 27 mph 1015.5mb 67f 63f
7:50pm 5ft 9s 5s 22 27 mph 1015.6mb 67f 64f
6:50pm 4.5ft 9s 5s 20 25 mph 1015.6mb 67f 64f
5:50pm 5ft 10s 5s 20 25 mph 1016mb 68f 64f
4:50pm 4.5ft 9s 5s 20 25 mph 1016mb 68f 64f
3:50pm 4.5ft 10s 6s 18 25 mph 1016.4mb 68f 63f
2:50pm 5ft 10s 6s 18 22 mph 1016.8mb 68f 64f
1:50pm 4.5ft 10s 6s 18
mph
1016.7mb 67f 64f
12:50pm 4.5ft 10s 7s 13 16 mph 1017mb 67f 64f
11:50am 4.5ft 9s 6s 13 18 mph 1016.9mb 67f 64f
10:50am 4.5ft 10s 6s 13 16 mph 1016.8mb 67f 63f
9:50am 4.5ft 10s 6s 16 18 mph 1016.2mb 67f 63f
8:50am 5ft 10s 6s 16 20 mph 1016.1mb 67f 63f
7:50am 4.5ft 10s 6s 16 18 mph 1015.8mb 67f 63f
6:50am 4.5ft 9s 6s 16 18 mph 1015.4mb 67f 64f
5:50am 4.5ft 9s 6s 16 20 mph 1015mb 67f 64f
4:50am 4.5ft 9s 6s 16 18 mph 1014.7mb 67f 64f
3:50am 4.5ft 10s 6s 16 20 mph 1014.4mb 68f 63f
2:50am 4.5ft 9s 6s 16 18 mph 1014.3mb 67f 64f
1:50am 4ft 9s 6s 16 18 mph 1014.2mb 67f 64f
12:50am 4ft 11s 6s 16 18 mph 1014.3mb 67f 64f
Thu 07/10 11:50pm 4.5ft 9s 6s 18 20 mph 1014.4mb 67f 64f
10:50pm 4ft 9s 6s 16 18 mph 1014.7mb 67f 64f
9:50pm 4.5ft 8s 6s 16 18 mph 1014.4mb 67f 64f
7:50pm 4.5ft 9s 6s 16 20 mph 1013.7mb 67f 63f
6:50pm 4.5ft 9s 6s 13 20 mph 1013.6mb 67f 62f
5:50pm 4.5ft 8s 7s 13 18 mph 1013.5mb 68f 63f
4:50pm 4.5ft 9s 7s 11 16 mph 1013.5mb 68f 63f
3:50pm 5ft 10s 7s 11 13 mph 1013.9mb 68f 63f
2:50pm 5ft 9s 7s 11 13 mph 1014.4mb 68f 63f
1:50pm 5ft 10s 8s 7 9 mph 1014.7mb 68f 61f
12:50pm 5ft 10s 7s 7 11 mph 1014.9mb 67f 62f
11:50am 5ft 9s 7s 9 13 mph 1015.2mb 67f 61f
10:50am 5ft 10s 7s 9 11 mph 1015.3mb 67f 60f
9:50am 5ft 9s 7s 9 11 mph 1015.4mb 66f 61f
8:50am 5ft 10s 7s 7 11 mph 1015.4mb 66f 62f
7:50am 5ft 8s 7s 11 13 mph 1015.4mb 65f 62f
6:50am 4.5ft 10s 6s 11 13 mph 1014.8mb 65f 62f
5:50am 5ft 9s 7s 11 16 mph 1014.3mb 66f 61f
4:50am 5ft 9s 6s 13 16 mph 1014mb 66f 61f
3:50am 5ft 10s 6s 13 16 mph 1013.8mb 67f 61f
2:50am 5ft 14s 6s 13 22 mph 1014mb 67f 62f
1:50am 4.5ft 15s 6s 16 18 mph 1014.1mb 67f 62f
12:50am 4.5ft 9s 6s 16 20 mph 1014.1mb 67f 62f
Wed 07/09 11:50pm 5ft 10s 6s 16 20 mph 1014.3mb 67f 62f
10:50pm 5ft 15s 6s 16 22 mph 1014mb 67f 62f
9:50pm 5ft 9s 6s 18 20 mph 1013.5mb 67f 62f
8:50pm 4.5ft 10s 5s 18 22 mph 1012.9mb 67f 62f
7:50pm 4.5ft 8s 5s 20 25 mph 1012.6mb 68f 63f
6:50pm 4.5ft 9s 5s 20 25 mph 1012.5mb 68f 63f
5:50pm 5ft 9s 6s 18 22 mph 1012.8mb 68f 62f
4:50pm 6ft 9s 6s 18 22 mph 1013.3mb 68f 63f
3:50pm 6ft 9s 7s 18 22 mph 1013.8mb 68f 63f
2:50pm 6ft 9s 7s 16 18 mph 1014.6mb 68f 63f
1:50pm 5ft 9s 7s 16 18 mph 1015mb 68f 63f
12:50pm 6ft 9s 7s 13 16 mph 1015.4mb 67f 62f
11:50am 5ft 10s 7s 13 18 mph 1015.7mb 67f 62f
10:50am 5.5ft 9s 7s 11 16 mph 1015.7mb 66f 61f
9:50am 6ft 15s 7s 11 13 mph 1015.9mb 66f 61f
8:50am 5ft 9s 7s 11 16 mph 1016mb 66f 61f
7:50am 5.5ft 15s 7s 11 16 mph 1015.3mb 66f 60f
6:50am 5.5ft 15s 7s 13 16 mph 1015mb 66f 60f
5:50am 6ft 15s 7s 13 16 mph 1014.8mb 66f 60f
4:50am 5.5ft 15s 7s 13 16 mph 1014.5mb 66f 60f
2:50am 6ft 15s 7s 16 22 mph 1014.4mb 67f 60f
1:50am 6ft 16s 6s 16 20 mph 1014.5mb 67f 61f
12:50am 6ft 15s 6s 18 22 mph 1014.7mb 67f 61f
Tue 07/08 11:50pm 6ft 16s 6s 18 22 mph 1014.6mb 67f 61f
10:50pm 6ft 16s 6s 20 25 mph 1014.3mb 66f 61f
9:50pm 6ft 16s 6s 20 25 mph 1013.9mb 66f 61f
8:50pm 6ft 16s 6s 20 27 mph 1013.1mb 66f 61f
7:50pm 6ft 16s 6s 20 25 mph 1012.6mb 67f 62f
6:50pm 5.5ft 15s 6s 20 22 mph 1012.5mb 67f 62f
5:50pm 6ft 8s 6s 18 20 mph 1012.6mb 67f 62f
4:50pm 6ft 9s 7s 16 20 mph 1013mb 67f 62f
3:50pm 6ft 8s 7s 13 18 mph 1013.7mb 67f 62f
2:50pm 7ft 16s 7s 11 13 mph 1014.3mb 67f 62f